createdAt,value
2023-01-10T00:01:39.580Z,5.18
2023-01-10T00:07:01.773Z,11.13
2023-01-10T00:12:42.360Z,6.43
2023-01-10T00:18:04.603Z,4.47
2023-01-10T00:23:27.612Z,4.28
2023-01-10T00:28:49.914Z,5.38
2023-01-10T00:34:11.976Z,6.68
2023-01-10T00:39:33.521Z,8.43
2023-01-10T00:44:55.524Z,5.05
2023-01-10T00:50:19.442Z,7.13
2023-01-10T00:55:41.479Z,6.43
2023-01-10T01:01:03.418Z,6.82
2023-01-10T01:06:28.786Z,5.63
2023-01-10T01:11:51.282Z,6.22
2023-01-10T01:17:13.904Z,7.38
2023-01-10T01:22:38.581Z,10.23
2023-01-10T01:28:00.675Z,7.80
2023-01-10T01:33:26.181Z,5.40
2023-01-10T01:38:50.255Z,4.15
2023-01-10T01:44:19.380Z,4.60
2023-01-10T01:49:45.540Z,5.28
2023-01-10T01:55:11.099Z,6.00
2023-01-10T02:00:36.006Z,7.80
2023-01-10T02:06:30.426Z,5.80
2023-01-10T02:12:20.963Z,6.68
2023-01-10T02:17:43.319Z,9.43
2023-01-10T02:23:49.810Z,7.82
2023-01-10T02:29:20.653Z,6.30
2023-01-10T02:35:04.983Z,9.35
2023-01-10T02:41:02.746Z,7.80
2023-01-10T02:46:30.054Z,11.02
2023-01-10T02:57:37.862Z,9.35
2023-01-10T03:03:27.803Z,6.33
2023-01-10T03:09:29.332Z,7.45
2023-01-10T03:14:53.372Z,8.23
2023-01-10T03:20:15.522Z,7.57
2023-01-10T03:25:40.873Z,7.03
2023-01-10T03:31:15.349Z,6.20
2023-01-10T03:36:50.870Z,5.05
2023-01-10T03:42:26.464Z,6.35
2023-01-10T03:47:52.616Z,7.80
2023-01-10T03:53:16.264Z,11.03
2023-01-10T03:58:38.353Z,7.00
2023-01-10T04:04:06.919Z,5.63
2023-01-10T04:09:29.706Z,5.43
2023-01-10T04:14:52.028Z,8.55
2023-01-10T04:20:14.404Z,7.68
2023-01-10T04:25:37.089Z,9.77
2023-01-10T04:30:59.635Z,9.57
2023-01-10T04:36:22.582Z,7.65
2023-01-10T04:41:45.223Z,9.43
2023-01-10T04:47:07.233Z,7.75
2023-01-10T04:52:31.062Z,6.65
2023-01-10T04:57:55.841Z,9.10
2023-01-10T05:03:20.871Z,4.38
2023-01-10T05:08:43.643Z,6.53
2023-01-10T05:14:08.195Z,4.88
2023-01-10T05:19:30.014Z,7.93
2023-01-10T05:24:54.547Z,8.35
2023-01-10T05:30:17.988Z,7.57
2023-01-10T05:35:45.731Z,7.75
2023-01-10T05:41:11.700Z,7.72
2023-01-10T05:46:39.281Z,7.78
2023-01-10T05:52:01.839Z,7.30
2023-01-10T05:57:25.176Z,8.55
2023-01-10T06:02:47.766Z,9.68
2023-01-10T06:08:09.907Z,7.97
2023-01-10T06:13:32.200Z,8.05
2023-01-10T06:18:53.762Z,7.07
2023-01-10T06:24:15.594Z,6.82
2023-01-10T06:29:37.820Z,6.75
2023-01-10T06:35:00.091Z,7.47
2023-01-10T06:40:22.670Z,6.53
2023-01-10T06:45:44.801Z,6.10
2023-01-10T06:51:07.155Z,5.72
2023-01-10T06:56:29.329Z,6.05
2023-01-10T07:01:51.446Z,6.03
2023-01-10T07:07:13.233Z,7.97
2023-01-10T07:12:35.345Z,6.03
2023-01-10T07:18:01.283Z,7.50
2023-01-10T07:23:23.216Z,6.93
2023-01-10T07:28:46.469Z,6.72
2023-01-10T07:34:08.701Z,8.32
2023-01-10T07:39:30.752Z,5.28
2023-01-10T07:44:53.023Z,6.15
2023-01-10T07:50:18.032Z,5.72
2023-01-10T07:55:40.344Z,5.97
2023-01-10T08:01:04.558Z,5.85
2023-01-10T08:06:26.662Z,6.22
2023-01-10T08:11:48.814Z,6.25
2023-01-10T08:17:10.763Z,7.22
2023-01-10T08:22:32.904Z,5.05
2023-01-10T08:27:54.893Z,6.00
2023-01-10T08:33:16.864Z,6.05
2023-01-10T08:38:38.520Z,6.13
2023-01-10T08:44:01.313Z,5.15
2023-01-10T08:49:23.292Z,5.32
2023-01-10T08:54:45.562Z,6.57
2023-01-10T09:00:08.925Z,5.95
2023-01-10T09:05:31.160Z,5.70
2023-01-10T09:10:56.235Z,6.05
2023-01-10T09:16:26.061Z,5.75
2023-01-10T09:21:48.377Z,5.55
2023-01-10T09:27:13.064Z,6.68
2023-01-10T09:32:35.117Z,5.22
2023-01-10T09:38:01.986Z,5.65
2023-01-10T09:43:48.624Z,5.82
2023-01-10T09:49:48.339Z,4.88
2023-01-10T09:55:24.235Z,6.07
2023-01-10T10:01:03.406Z,4.32
2023-01-10T10:06:28.327Z,6.05
2023-01-10T10:12:04.093Z,4.25
2023-01-10T10:17:28.589Z,4.68
2023-01-10T10:23:27.533Z,4.13
2023-01-10T10:29:07.003Z,5.63
2023-01-10T10:34:42.624Z,5.32
2023-01-10T10:40:06.732Z,5.50
2023-01-10T10:45:35.884Z,4.47
2023-01-10T10:51:09.495Z,3.97
2023-01-10T10:56:31.574Z,4.90
2023-01-10T11:01:54.334Z,5.45
2023-01-10T11:07:19.142Z,4.53
2023-01-10T11:12:48.673Z,4.68
2023-01-10T11:18:23.068Z,5.07
2023-01-10T11:23:53.130Z,4.50
2023-01-10T11:29:43.478Z,5.38
2023-01-10T11:35:18.344Z,4.75
2023-01-10T11:40:53.753Z,4.30
2023-01-10T11:46:28.047Z,4.38
2023-01-10T11:51:53.945Z,4.50
2023-01-10T11:57:25.956Z,3.28
2023-01-10T12:02:48.734Z,3.83
2023-01-10T12:08:26.463Z,3.08
2023-01-10T12:13:59.644Z,4.53
2023-01-10T12:19:21.966Z,3.80
2023-01-10T12:25:08.121Z,4.13
2023-01-10T12:30:37.560Z,4.63
2023-01-10T12:36:14.985Z,4.32
2023-01-10T12:41:58.424Z,4.88
2023-01-10T12:47:36.048Z,4.30
2023-01-10T12:53:08.094Z,3.90
2023-01-10T12:58:40.447Z,4.50
2023-01-10T13:04:13.466Z,5.97
2023-01-10T13:09:42.400Z,4.10
2023-01-10T13:15:39.920Z,3.10
2023-01-10T13:21:15.565Z,4.83
2023-01-10T13:26:53.833Z,3.97
2023-01-10T13:32:31.944Z,3.75
2023-01-10T13:37:57.772Z,4.40
2023-01-10T13:43:35.271Z,4.97
2023-01-10T13:49:00.907Z,4.22
2023-01-10T13:54:28.893Z,4.35
2023-01-10T14:00:21.717Z,4.28
2023-01-10T14:05:49.350Z,4.38
2023-01-10T14:11:16.893Z,2.45
2023-01-10T14:16:45.609Z,3.72
2023-01-10T14:27:45.637Z,3.38
2023-01-10T14:33:25.723Z,4.15
2023-01-10T14:38:50.983Z,3.78
2023-01-10T14:44:51.093Z,4.25
2023-01-10T14:50:37.226Z,4.67
2023-01-10T15:01:34.025Z,3.03
2023-01-10T15:07:11.623Z,2.30
2023-01-10T15:12:37.911Z,3.13
2023-01-10T15:18:01.636Z,3.60
2023-01-10T15:23:27.730Z,5.10
2023-01-10T15:29:13.748Z,3.10
2023-01-10T15:34:35.703Z,4.80
2023-01-10T15:39:59.131Z,3.88
2023-01-10T15:45:38.283Z,5.25
2023-01-10T15:51:16.446Z,3.03
2023-01-10T15:56:48.065Z,4.35
2023-01-10T16:02:14.036Z,4.07
2023-01-10T16:07:43.062Z,4.20
2023-01-10T16:13:27.698Z,2.80
2023-01-10T16:18:50.331Z,4.07
2023-01-10T16:24:22.999Z,3.63
2023-01-10T16:29:45.124Z,3.90
2023-01-10T16:35:08.264Z,4.13
2023-01-10T16:40:42.779Z,3.90
2023-01-10T16:46:05.527Z,3.03
2023-01-10T16:51:30.865Z,3.78
2023-01-10T16:56:53.033Z,5.28
2023-01-10T17:02:22.453Z,4.75
2023-01-10T17:07:44.453Z,3.63
2023-01-10T17:13:09.404Z,4.68
2023-01-10T17:18:31.391Z,4.25
2023-01-10T17:23:53.462Z,3.13
2023-01-10T17:29:15.700Z,3.90
2023-01-10T17:34:38.877Z,5.13
2023-01-10T17:46:11.553Z,2.78
2023-01-10T17:51:53.397Z,3.55
2023-01-10T17:57:15.601Z,4.95
2023-01-10T18:02:38.231Z,4.22
2023-01-10T18:08:01.924Z,4.28
2023-01-10T18:13:25.268Z,4.43
2023-01-10T18:18:52.771Z,3.75
2023-01-10T18:24:24.053Z,5.63
2023-01-10T18:29:46.317Z,3.40
2023-01-10T18:35:09.370Z,2.40
2023-01-10T18:40:32.894Z,4.45
2023-01-10T18:46:28.064Z,5.45
2023-01-10T18:51:53.028Z,4.22
2023-01-10T18:57:15.859Z,4.18
2023-01-10T19:02:38.197Z,3.45
2023-01-10T19:08:03.617Z,2.75
2023-01-10T19:13:25.523Z,3.95
2023-01-10T19:18:59.525Z,2.92
2023-01-10T19:24:23.683Z,3.72
2023-01-10T19:29:49.112Z,4.15
2023-01-10T19:35:11.426Z,4.38
2023-01-10T19:40:34.811Z,3.20
2023-01-10T19:45:57.307Z,3.17
2023-01-10T19:51:19.255Z,4.70
2023-01-10T19:56:41.553Z,5.78
2023-01-10T20:02:04.975Z,5.45
2023-01-10T20:07:34.723Z,3.50
2023-01-10T20:13:05.283Z,5.40
2023-01-10T20:18:32.552Z,4.17
2023-01-10T20:24:01.691Z,5.03
2023-01-10T20:29:24.077Z,4.65
2023-01-10T20:34:51.601Z,4.40
2023-01-10T20:40:14.118Z,5.28
2023-01-10T20:45:37.627Z,4.32
2023-01-10T20:51:04.972Z,3.40
2023-01-10T20:56:29.655Z,2.83
2023-01-10T21:01:55.538Z,3.53
2023-01-10T21:07:18.256Z,3.15
2023-01-10T21:12:40.725Z,2.97
2023-01-10T21:18:02.575Z,3.75
2023-01-10T21:23:26.247Z,4.28
2023-01-10T21:28:48.465Z,2.38
2023-01-10T21:34:10.758Z,3.75
2023-01-10T21:39:32.848Z,3.83
2023-01-10T21:44:54.803Z,4.57
2023-01-10T21:50:19.095Z,3.08
2023-01-10T21:55:44.493Z,3.10
2023-01-10T22:01:06.851Z,3.35
2023-01-10T22:06:29.419Z,3.53
2023-01-10T22:11:59.883Z,4.15
2023-01-10T22:17:22.513Z,2.50
2023-01-10T22:22:47.985Z,3.55
2023-01-10T22:28:13.875Z,4.13
2023-01-10T22:33:40.831Z,2.43
2023-01-10T22:39:07.707Z,3.40
2023-01-10T22:44:32.165Z,2.65
2023-01-10T22:49:58.865Z,5.05
2023-01-10T22:55:22.505Z,2.85
2023-01-10T23:00:56.850Z,1.92
2023-01-10T23:06:20.506Z,2.15
2023-01-10T23:11:42.721Z,4.05
2023-01-10T23:17:04.625Z,2.10
2023-01-10T23:22:26.761Z,3.13
2023-01-10T23:27:48.944Z,3.75
2023-01-10T23:33:11.240Z,3.70
2023-01-10T23:38:33.282Z,3.28
2023-01-10T23:43:55.567Z,2.28
2023-01-10T23:49:17.623Z,2.28
2023-01-10T23:54:41.755Z,4.38
